createdAt,value
2022-10-19T00:01:04.007Z,85.70
2022-10-19T00:02:54.322Z,85.70
2022-10-19T00:04:44.756Z,85.70
2022-10-19T00:06:36.462Z,85.30
2022-10-19T00:08:26.736Z,85.20
2022-10-19T00:10:17.178Z,85.30
2022-10-19T00:12:08.878Z,85.50
2022-10-19T00:14:00.334Z,85.50
2022-10-19T00:15:50.861Z,85.80
2022-10-19T00:17:41.541Z,85.80
2022-10-19T00:19:31.949Z,85.40
2022-10-19T00:21:22.446Z,85.30
2022-10-19T00:23:12.644Z,86.00
2022-10-19T00:25:04.406Z,85.90
2022-10-19T00:26:54.569Z,86.50
2022-10-19T00:28:46.573Z,86.60
2022-10-19T00:30:41.367Z,86.50
2022-10-19T00:32:32.099Z,86.70
2022-10-19T00:34:23.061Z,86.40
2022-10-19T00:36:15.917Z,85.90
2022-10-19T00:38:06.248Z,85.50
2022-10-19T00:39:56.565Z,85.50
2022-10-19T00:41:48.944Z,85.50
2022-10-19T00:43:55.840Z,85.60
2022-10-19T00:45:46.173Z,85.40
2022-10-19T00:47:36.779Z,85.90
2022-10-19T00:49:30.006Z,85.70
2022-10-19T00:51:21.008Z,85.30
2022-10-19T00:53:12.117Z,85.50
2022-10-19T00:55:02.898Z,85.70
2022-10-19T00:56:55.363Z,86.00
2022-10-19T00:58:45.517Z,85.90
2022-10-19T01:00:37.464Z,86.00
2022-10-19T01:02:28.145Z,85.90
2022-10-19T01:04:19.309Z,85.80
2022-10-19T01:06:10.399Z,86.00
2022-10-19T01:08:01.343Z,86.10
2022-10-19T01:09:52.007Z,86.20
2022-10-19T01:11:48.379Z,86.00
2022-10-19T01:13:44.032Z,85.90
2022-10-19T01:15:44.373Z,85.90
2022-10-19T01:17:44.385Z,85.80
2022-10-19T01:20:01.358Z,85.30
2022-10-19T01:21:58.647Z,85.50
2022-10-19T01:24:16.337Z,86.20
2022-10-19T01:26:16.143Z,86.30
2022-10-19T01:28:18.563Z,86.10
2022-10-19T01:30:13.722Z,86.00
2022-10-19T01:32:06.661Z,86.30
2022-10-19T01:34:03.044Z,86.30
2022-10-19T01:36:01.908Z,86.40
2022-10-19T01:37:58.557Z,86.00
2022-10-19T01:39:53.756Z,86.40
2022-10-19T01:41:47.843Z,86.40
2022-10-19T01:43:42.033Z,86.20
2022-10-19T01:45:38.818Z,86.10
2022-10-19T01:47:33.842Z,86.40
2022-10-19T01:49:28.606Z,86.40
2022-10-19T01:51:20.988Z,86.40
2022-10-19T01:53:12.313Z,86.70
2022-10-19T01:55:03.893Z,86.90
2022-10-19T01:56:55.018Z,87.30
2022-10-19T01:58:46.084Z,87.30
2022-10-19T02:00:39.388Z,87.50
2022-10-19T02:02:29.930Z,86.70
2022-10-19T02:04:21.878Z,86.60
2022-10-19T02:06:13.438Z,86.40
2022-10-19T02:08:05.901Z,86.30
2022-10-19T02:09:56.397Z,86.30
2022-10-19T02:11:49.666Z,86.30
2022-10-19T02:13:42.581Z,86.60
2022-10-19T02:15:35.417Z,87.00
2022-10-19T02:17:29.500Z,87.00
2022-10-19T02:19:20.559Z,86.90
2022-10-19T02:21:11.093Z,87.20
2022-10-19T02:23:03.867Z,87.00
2022-10-19T02:24:54.461Z,86.90
2022-10-19T02:26:44.917Z,87.00
2022-10-19T02:28:35.706Z,87.30
2022-10-19T02:30:26.294Z,87.40
2022-10-19T02:32:17.210Z,87.20
2022-10-19T02:34:09.593Z,87.60
2022-10-19T02:36:00.501Z,87.30
2022-10-19T02:37:51.057Z,87.30
2022-10-19T02:39:41.269Z,87.30
2022-10-19T02:41:34.644Z,87.30
2022-10-19T02:43:26.302Z,87.30
2022-10-19T02:45:20.591Z,87.60
2022-10-19T02:47:14.939Z,87.60
2022-10-19T02:49:06.975Z,87.70
2022-10-19T02:50:58.748Z,87.70
2022-10-19T02:52:49.067Z,88.00
2022-10-19T02:54:40.639Z,88.10
2022-10-19T02:56:31.232Z,88.10
2022-10-19T02:58:21.976Z,88.10
2022-10-19T03:00:12.837Z,88.10
2022-10-19T03:02:03.524Z,88.20
2022-10-19T03:03:53.890Z,88.10
2022-10-19T03:05:44.472Z,88.10
2022-10-19T03:07:36.763Z,87.70
2022-10-19T03:09:27.641Z,87.70
2022-10-19T03:11:18.433Z,88.00
2022-10-19T03:13:08.864Z,87.70
2022-10-19T03:14:59.609Z,87.70
2022-10-19T03:16:50.571Z,87.60
2022-10-19T03:18:41.012Z,87.70
2022-10-19T03:20:31.377Z,87.60
2022-10-19T03:22:21.632Z,86.90
2022-10-19T03:24:13.617Z,86.70
2022-10-19T03:26:06.522Z,87.10
2022-10-19T03:27:59.326Z,87.10
2022-10-19T03:29:50.079Z,87.50
2022-10-19T03:31:40.303Z,87.30
2022-10-19T03:33:30.806Z,87.00
2022-10-19T03:35:21.193Z,86.80
2022-10-19T03:37:11.836Z,86.80
2022-10-19T03:39:04.268Z,87.00
2022-10-19T03:40:55.920Z,87.10
2022-10-19T03:42:46.618Z,87.30
2022-10-19T03:44:37.286Z,87.10
2022-10-19T03:46:28.290Z,87.10
2022-10-19T03:48:19.139Z,86.80
2022-10-19T03:50:10.101Z,86.90
2022-10-19T03:52:00.576Z,86.90
2022-10-19T03:53:52.711Z,87.10
2022-10-19T03:55:43.099Z,86.70
2022-10-19T03:57:34.965Z,86.60
2022-10-19T03:59:25.415Z,86.60
2022-10-19T04:01:17.525Z,86.20
2022-10-19T04:03:08.160Z,86.40
2022-10-19T04:04:58.672Z,86.70
2022-10-19T04:06:50.350Z,86.50
2022-10-19T04:08:41.158Z,86.40
2022-10-19T04:10:31.450Z,86.70
2022-10-19T04:12:21.929Z,86.60
2022-10-19T04:14:22.765Z,86.80
2022-10-19T04:16:25.310Z,86.60
2022-10-19T04:18:15.838Z,86.60
2022-10-19T04:20:07.004Z,86.80
2022-10-19T04:21:57.544Z,86.70
2022-10-19T04:23:48.226Z,86.80
2022-10-19T04:25:38.648Z,86.50
2022-10-19T04:27:28.981Z,86.50
2022-10-19T04:29:25.028Z,86.30
2022-10-19T04:31:18.236Z,86.80
2022-10-19T04:33:08.573Z,87.00
2022-10-19T04:34:59.168Z,86.80
2022-10-19T04:36:49.507Z,86.60
2022-10-19T04:38:40.134Z,86.60
2022-10-19T04:40:30.895Z,86.80
2022-10-19T04:42:21.219Z,87.30
2022-10-19T04:44:11.612Z,87.30
2022-10-19T04:46:07.989Z,87.10
2022-10-19T04:47:58.575Z,86.80
2022-10-19T04:49:49.369Z,86.80
2022-10-19T04:51:40.059Z,86.70
2022-10-19T04:53:30.876Z,86.50
2022-10-19T04:55:21.403Z,86.40
2022-10-19T04:57:11.605Z,86.10
2022-10-19T04:59:01.918Z,86.40
2022-10-19T05:00:52.607Z,86.80
2022-10-19T05:02:44.747Z,87.00
2022-10-19T05:04:35.427Z,86.70
2022-10-19T05:06:27.207Z,86.30
2022-10-19T05:08:17.855Z,86.70
2022-10-19T05:10:09.572Z,86.90
2022-10-19T05:11:59.877Z,86.90
2022-10-19T05:13:50.384Z,87.00
2022-10-19T05:15:41.016Z,86.70
2022-10-19T05:17:31.812Z,86.70
2022-10-19T05:19:23.957Z,86.50
2022-10-19T05:21:14.930Z,86.50
2022-10-19T05:23:07.451Z,86.50
2022-10-19T05:24:58.378Z,86.30
2022-10-19T05:26:48.706Z,86.40
2022-10-19T05:28:39.240Z,86.20
2022-10-19T05:30:29.739Z,86.10
2022-10-19T05:32:20.080Z,86.30
2022-10-19T05:34:11.012Z,86.20
2022-10-19T05:36:12.424Z,86.20
2022-10-19T05:38:02.786Z,86.90
2022-10-19T05:39:54.593Z,86.90
2022-10-19T05:41:45.876Z,87.00
2022-10-19T05:43:36.534Z,87.30
2022-10-19T05:45:27.656Z,87.30
2022-10-19T05:47:19.418Z,87.60
2022-10-19T05:49:10.764Z,87.70
2022-10-19T05:51:01.129Z,87.30
2022-10-19T05:52:53.005Z,87.30
2022-10-19T05:54:43.630Z,87.00
2022-10-19T05:56:33.948Z,87.30
2022-10-19T05:58:24.785Z,87.40
2022-10-19T06:00:15.840Z,87.40
2022-10-19T06:02:06.848Z,87.00
2022-10-19T06:03:58.617Z,86.90
2022-10-19T06:05:49.784Z,87.10
2022-10-19T06:07:40.612Z,87.00
2022-10-19T06:09:32.457Z,87.00
2022-10-19T06:11:25.021Z,87.00
2022-10-19T06:13:19.086Z,86.90
2022-10-19T06:15:10.033Z,87.00
2022-10-19T06:17:00.644Z,86.90
2022-10-19T06:18:52.763Z,86.80
2022-10-19T06:20:43.158Z,87.10
2022-10-19T06:22:33.723Z,87.20
2022-10-19T06:24:24.370Z,87.40
2022-10-19T06:26:16.292Z,87.30
2022-10-19T06:28:07.621Z,87.30
2022-10-19T06:29:58.253Z,87.00
2022-10-19T06:31:49.116Z,87.00
2022-10-19T06:33:40.378Z,87.10
2022-10-19T06:35:30.970Z,87.00
2022-10-19T06:37:21.312Z,86.80
2022-10-19T06:39:11.959Z,86.90
2022-10-19T06:41:02.712Z,86.70
2022-10-19T06:42:54.924Z,86.90
2022-10-19T06:44:45.484Z,86.70
2022-10-19T06:46:35.702Z,86.90
2022-10-19T06:48:26.228Z,86.90
2022-10-19T06:50:16.934Z,86.90
2022-10-19T06:52:07.553Z,86.90
2022-10-19T06:53:58.073Z,86.70
2022-10-19T06:55:48.646Z,87.10
2022-10-19T06:57:39.320Z,87.30
2022-10-19T06:59:31.244Z,87.30
2022-10-19T07:01:22.401Z,87.30
2022-10-19T07:03:13.048Z,87.20
2022-10-19T07:05:06.886Z,86.90
2022-10-19T07:06:57.763Z,86.90
2022-10-19T07:08:48.575Z,87.10
2022-10-19T07:10:38.816Z,87.50
2022-10-19T07:12:29.440Z,87.60
2022-10-19T07:14:19.875Z,87.70
2022-10-19T07:16:17.543Z,87.70
2022-10-19T07:18:11.223Z,87.90
2022-10-19T07:20:01.888Z,87.80
2022-10-19T07:21:52.785Z,87.70
2022-10-19T07:23:46.099Z,87.60
2022-10-19T07:25:36.977Z,87.90
2022-10-19T07:27:27.334Z,87.90
2022-10-19T07:29:17.723Z,87.60
2022-10-19T07:31:10.065Z,87.40
2022-10-19T07:33:02.268Z,87.30
2022-10-19T07:34:52.742Z,87.30
2022-10-19T07:36:45.499Z,87.50
2022-10-19T07:38:36.584Z,87.70
2022-10-19T07:40:26.867Z,87.80
2022-10-19T07:42:17.286Z,87.50
2022-10-19T07:44:09.015Z,87.70
2022-10-19T07:46:03.210Z,87.40
2022-10-19T07:47:53.616Z,87.50
2022-10-19T07:49:45.390Z,87.50
2022-10-19T07:51:36.555Z,87.20
2022-10-19T07:53:27.500Z,87.20
2022-10-19T07:55:18.078Z,87.30
2022-10-19T07:57:11.223Z,87.30
2022-10-19T07:59:01.607Z,87.20
2022-10-19T08:00:51.983Z,87.30
2022-10-19T08:02:54.889Z,87.40
2022-10-19T08:05:02.132Z,87.10
2022-10-19T08:06:55.697Z,86.70
2022-10-19T08:08:46.634Z,86.80
2022-10-19T08:10:37.415Z,86.90
2022-10-19T08:12:27.931Z,86.90
2022-10-19T08:14:18.161Z,86.60
2022-10-19T08:16:21.968Z,86.40
2022-10-19T08:18:12.266Z,86.20
2022-10-19T08:20:04.331Z,86.10
2022-10-19T08:21:54.928Z,85.90
2022-10-19T08:23:45.166Z,85.60
2022-10-19T08:25:35.630Z,85.50
2022-10-19T08:27:26.221Z,85.10
2022-10-19T08:29:18.755Z,85.00
2022-10-19T08:31:10.824Z,84.60
2022-10-19T08:33:01.106Z,84.70
2022-10-19T08:34:51.790Z,85.00
2022-10-19T08:36:44.258Z,84.60
2022-10-19T08:38:34.958Z,84.50
2022-10-19T08:40:27.676Z,84.10
2022-10-19T08:42:21.297Z,84.30
2022-10-19T08:44:23.958Z,84.20
2022-10-19T08:46:18.292Z,84.00
2022-10-19T08:48:27.730Z,83.70
2022-10-19T08:50:20.837Z,83.10
2022-10-19T08:52:15.304Z,83.70
2022-10-19T08:54:09.502Z,83.50
2022-10-19T08:56:38.833Z,83.40
2022-10-19T08:58:40.652Z,83.60
2022-10-19T09:02:42.571Z,83.40
2022-10-19T09:04:36.515Z,83.60
2022-10-19T09:06:30.654Z,83.10
2022-10-19T09:08:22.512Z,82.90
2022-10-19T09:10:20.600Z,82.60
2022-10-19T09:12:16.340Z,82.50
2022-10-19T09:14:13.262Z,82.60
2022-10-19T09:16:04.855Z,81.70
2022-10-19T09:17:55.305Z,81.70
2022-10-19T09:19:45.629Z,81.90
2022-10-19T09:21:47.016Z,81.90
2022-10-19T09:23:43.406Z,81.20
2022-10-19T09:25:35.334Z,81.50
2022-10-19T09:27:28.795Z,81.30
2022-10-19T09:29:24.484Z,80.90
2022-10-19T09:31:19.113Z,81.20
2022-10-19T09:33:16.420Z,81.10
2022-10-19T09:35:15.580Z,80.60
2022-10-19T09:37:06.410Z,80.40
2022-10-19T09:38:58.363Z,80.10
2022-10-19T09:40:48.781Z,79.70
2022-10-19T09:42:39.287Z,79.80
2022-10-19T09:44:30.511Z,79.50
2022-10-19T09:46:31.881Z,79.60
2022-10-19T09:48:28.041Z,79.50
2022-10-19T09:50:20.969Z,79.30
2022-10-19T09:52:29.291Z,79.50
2022-10-19T09:54:38.714Z,79.40
2022-10-19T09:56:29.648Z,79.50
2022-10-19T09:58:20.864Z,79.50
2022-10-19T10:00:18.346Z,79.10
2022-10-19T10:02:16.436Z,78.30
2022-10-19T10:04:07.878Z,78.60
2022-10-19T10:06:02.176Z,78.30
2022-10-19T10:07:55.064Z,78.00
2022-10-19T10:09:46.748Z,78.20
2022-10-19T10:11:38.515Z,77.50
2022-10-19T10:13:28.850Z,77.70
2022-10-19T10:15:22.590Z,78.00
2022-10-19T10:17:16.600Z,78.00
2022-10-19T10:19:08.735Z,78.30
2022-10-19T10:21:00.533Z,77.70
2022-10-19T10:22:56.575Z,78.10
2022-10-19T10:24:55.024Z,78.00
2022-10-19T10:26:47.719Z,78.00
2022-10-19T10:28:47.044Z,77.90
2022-10-19T10:30:37.638Z,77.10
2022-10-19T10:32:31.473Z,77.10
2022-10-19T10:34:45.550Z,76.50
2022-10-19T10:36:40.342Z,75.50
2022-10-19T10:38:33.409Z,75.10
2022-10-19T10:40:28.217Z,75.60
2022-10-19T10:42:22.304Z,75.50
2022-10-19T10:44:18.118Z,74.60
2022-10-19T10:46:14.294Z,74.70
2022-10-19T10:48:18.886Z,74.70
2022-10-19T10:50:17.276Z,74.80
2022-10-19T10:52:10.660Z,75.10
2022-10-19T10:54:17.057Z,75.10
2022-10-19T10:56:21.753Z,75.40
2022-10-19T10:58:15.841Z,75.20
2022-10-19T11:00:10.150Z,75.70
2022-10-19T11:02:03.236Z,75.70
2022-10-19T11:04:00.678Z,75.60
2022-10-19T11:05:54.485Z,75.80
2022-10-19T11:07:46.801Z,75.60
2022-10-19T11:09:41.846Z,75.70
2022-10-19T11:11:36.563Z,74.70
2022-10-19T11:13:30.349Z,74.70
2022-10-19T11:15:24.079Z,73.70
2022-10-19T11:17:18.040Z,73.60
2022-10-19T11:21:09.642Z,72.30
2022-10-19T11:23:06.995Z,72.20
2022-10-19T11:25:05.370Z,72.10
2022-10-19T11:27:06.621Z,72.10
2022-10-19T11:29:08.633Z,72.70
2022-10-19T11:31:06.776Z,72.70
2022-10-19T11:33:01.727Z,73.30
2022-10-19T11:35:03.187Z,72.90
2022-10-19T11:36:57.088Z,72.30
2022-10-19T11:38:55.626Z,72.40
2022-10-19T11:41:13.250Z,72.80
2022-10-19T11:43:10.504Z,72.20
2022-10-19T11:45:06.169Z,71.00
2022-10-19T11:47:08.930Z,70.70
2022-10-19T11:49:16.806Z,70.60
2022-10-19T11:51:20.915Z,71.00
2022-10-19T11:53:16.266Z,71.00
2022-10-19T11:55:15.705Z,69.80
2022-10-19T11:57:12.022Z,70.40
2022-10-19T12:01:16.597Z,69.80
2022-10-19T12:03:21.936Z,69.10
2022-10-19T12:05:16.874Z,68.90
2022-10-19T12:07:37.249Z,68.60
2022-10-19T12:09:35.239Z,68.50
2022-10-19T12:11:30.568Z,68.50
2022-10-19T12:13:26.026Z,68.30
2022-10-19T12:15:24.761Z,67.90
2022-10-19T12:17:18.852Z,68.40
2022-10-19T12:19:14.863Z,67.80
2022-10-19T12:21:09.511Z,67.50
2022-10-19T12:23:02.195Z,67.80
2022-10-19T12:24:53.184Z,68.60
2022-10-19T12:26:45.406Z,67.20
2022-10-19T12:28:38.249Z,66.60
2022-10-19T12:30:29.761Z,67.20
2022-10-19T12:32:22.219Z,66.60
2022-10-19T12:34:25.482Z,67.20
2022-10-19T12:36:32.206Z,66.80
2022-10-19T12:38:27.772Z,66.00
2022-10-19T12:40:24.040Z,66.40
2022-10-19T12:42:20.406Z,66.20
2022-10-19T12:44:29.958Z,66.00
2022-10-19T12:46:30.552Z,66.00
2022-10-19T12:48:23.036Z,65.40
2022-10-19T12:50:13.623Z,65.30
2022-10-19T12:52:04.927Z,65.80
2022-10-19T12:54:07.825Z,64.10
2022-10-19T12:56:00.588Z,63.70
2022-10-19T12:57:59.444Z,64.40
2022-10-19T12:59:59.119Z,63.30
2022-10-19T13:01:51.031Z,63.00
2022-10-19T13:03:42.686Z,64.50
2022-10-19T13:05:34.351Z,64.20
2022-10-19T13:07:25.871Z,63.80
2022-10-19T13:09:24.046Z,63.30
2022-10-19T13:11:15.169Z,64.50
2022-10-19T13:13:05.879Z,63.70
2022-10-19T13:14:56.966Z,63.90
2022-10-19T13:16:59.269Z,63.80
2022-10-19T13:19:17.614Z,63.30
2022-10-19T13:21:08.550Z,62.60
2022-10-19T13:23:32.699Z,62.30
2022-10-19T13:25:25.520Z,61.30
2022-10-19T13:27:35.712Z,61.40
2022-10-19T13:29:27.601Z,61.80
2022-10-19T13:31:26.052Z,61.60
2022-10-19T13:33:43.254Z,61.40
2022-10-19T13:35:34.810Z,61.90
2022-10-19T13:37:25.312Z,62.10
2022-10-19T13:39:16.274Z,61.80
2022-10-19T13:41:10.575Z,62.00
2022-10-19T13:43:01.352Z,62.00
2022-10-19T13:44:53.227Z,62.00
2022-10-19T13:47:17.121Z,62.00
2022-10-19T13:49:47.181Z,61.90
2022-10-19T13:51:44.133Z,61.40
2022-10-19T13:53:40.922Z,62.10
2022-10-19T13:55:47.339Z,61.70
2022-10-19T13:57:50.135Z,61.00
2022-10-19T14:00:16.762Z,60.60
2022-10-19T14:02:31.506Z,61.00
2022-10-19T14:04:30.574Z,61.00
2022-10-19T14:06:27.651Z,59.80
2022-10-19T14:08:35.075Z,60.60
2022-10-19T14:10:32.866Z,61.00
2022-10-19T14:12:29.977Z,60.60
2022-10-19T14:14:22.740Z,60.60
2022-10-19T14:16:18.938Z,61.00
2022-10-19T14:18:22.823Z,61.80
2022-10-19T14:20:26.304Z,62.10
2022-10-19T14:22:24.994Z,61.90
2022-10-19T14:24:26.651Z,61.70
2022-10-19T14:26:19.128Z,62.40
2022-10-19T14:28:09.421Z,63.10
2022-10-19T14:30:00.345Z,63.30
2022-10-19T14:31:52.319Z,64.40
2022-10-19T14:33:46.963Z,63.90
2022-10-19T14:35:40.243Z,64.70
2022-10-19T14:37:32.327Z,64.40
2022-10-19T14:39:27.647Z,64.80
2022-10-19T14:41:21.032Z,64.20
2022-10-19T14:43:19.902Z,63.70
2022-10-19T14:45:16.221Z,65.20
2022-10-19T14:47:20.084Z,65.20
2022-10-19T14:49:11.409Z,65.70
2022-10-19T14:51:04.302Z,66.70
2022-10-19T14:53:01.099Z,66.40
2022-10-19T14:54:52.772Z,66.60
2022-10-19T14:56:47.819Z,66.00
2022-10-19T14:58:41.696Z,67.40
2022-10-19T15:00:32.541Z,66.50
2022-10-19T15:02:24.737Z,67.10
2022-10-19T15:04:18.943Z,66.80
2022-10-19T15:06:17.788Z,67.10
2022-10-19T15:08:22.841Z,66.60
2022-10-19T15:10:19.829Z,67.60
2022-10-19T15:12:14.689Z,68.30
2022-10-19T15:14:08.800Z,68.50
2022-10-19T15:15:59.525Z,68.50
2022-10-19T15:17:55.102Z,68.80
2022-10-19T15:19:45.741Z,68.40
2022-10-19T15:21:36.259Z,68.00
2022-10-19T15:23:34.797Z,68.30
2022-10-19T15:25:32.348Z,67.60
2022-10-19T15:27:30.495Z,68.40
2022-10-19T15:29:22.996Z,68.00
2022-10-19T15:31:16.467Z,68.10
2022-10-19T15:33:14.240Z,68.70
2022-10-19T15:35:12.962Z,68.70
2022-10-19T15:37:03.528Z,69.30
2022-10-19T15:39:11.846Z,69.80
2022-10-19T15:41:21.581Z,69.80
2022-10-19T15:43:43.777Z,71.00
2022-10-19T15:45:35.464Z,70.40
2022-10-19T15:47:26.074Z,71.40
2022-10-19T15:49:50.194Z,71.40
2022-10-19T15:51:44.692Z,71.40
2022-10-19T15:53:35.131Z,71.50
2022-10-19T15:55:26.927Z,71.50
2022-10-19T15:57:27.504Z,71.80
2022-10-19T15:59:20.161Z,71.20
2022-10-19T16:01:15.804Z,71.10
2022-10-19T16:03:06.087Z,70.90
2022-10-19T16:04:58.024Z,70.80
2022-10-19T16:06:48.759Z,71.10
2022-10-19T16:08:39.600Z,71.60
2022-10-19T16:10:31.732Z,71.60
2022-10-19T16:12:22.856Z,71.50
2022-10-19T16:14:13.269Z,71.80
2022-10-19T16:16:11.384Z,71.70
2022-10-19T16:18:02.893Z,71.70
2022-10-19T16:19:53.561Z,71.80
2022-10-19T16:21:49.298Z,71.80
2022-10-19T16:23:42.102Z,71.90
2022-10-19T16:25:34.672Z,71.90
2022-10-19T16:27:26.473Z,72.20
2022-10-19T16:29:17.333Z,72.50
2022-10-19T16:31:08.121Z,72.60
2022-10-19T16:32:58.773Z,72.70
2022-10-19T16:34:49.576Z,72.80
2022-10-19T16:36:39.844Z,72.90
2022-10-19T16:38:30.171Z,73.00
2022-10-19T16:40:20.704Z,72.90
2022-10-19T16:42:12.749Z,72.90
2022-10-19T16:44:03.365Z,73.30
2022-10-19T16:45:55.017Z,73.60
2022-10-19T16:47:49.487Z,73.50
2022-10-19T16:49:40.086Z,73.70
2022-10-19T16:51:34.805Z,73.70
2022-10-19T16:53:25.327Z,73.30
2022-10-19T16:55:16.076Z,73.60
2022-10-19T16:57:09.718Z,73.40
2022-10-19T16:59:03.456Z,73.50
2022-10-19T17:00:53.913Z,73.40
2022-10-19T17:02:46.400Z,73.60
2022-10-19T17:04:38.708Z,73.80
2022-10-19T17:06:29.668Z,73.80
2022-10-19T17:08:21.648Z,73.70
2022-10-19T17:10:14.471Z,73.30
2022-10-19T17:12:06.029Z,73.20
2022-10-19T17:13:59.011Z,73.60
2022-10-19T17:15:51.153Z,73.80
2022-10-19T17:17:41.705Z,73.90
2022-10-19T17:19:32.217Z,74.00
2022-10-19T17:21:25.165Z,74.10
2022-10-19T17:23:15.786Z,74.10
2022-10-19T17:25:06.737Z,74.00
2022-10-19T17:26:57.771Z,74.10
2022-10-19T17:28:48.040Z,74.40
2022-10-19T17:30:40.881Z,74.50
2022-10-19T17:32:33.298Z,74.40
2022-10-19T17:34:23.782Z,74.20
2022-10-19T17:36:16.444Z,74.40
2022-10-19T17:38:06.869Z,74.30
2022-10-19T17:39:57.069Z,74.00
2022-10-19T17:41:48.931Z,74.40
2022-10-19T17:43:40.730Z,74.60
2022-10-19T17:45:31.824Z,74.60
2022-10-19T17:47:22.445Z,74.40
2022-10-19T17:49:14.368Z,74.40
2022-10-19T17:51:06.827Z,74.80
2022-10-19T17:52:57.691Z,74.60
2022-10-19T17:54:54.608Z,74.90
2022-10-19T17:56:58.514Z,75.10
2022-10-19T17:58:49.286Z,75.70
2022-10-19T18:00:39.940Z,75.80
2022-10-19T18:02:30.555Z,75.00
2022-10-19T18:04:22.376Z,75.00
2022-10-19T18:06:14.170Z,75.00
2022-10-19T18:08:04.465Z,75.10
2022-10-19T18:09:56.194Z,75.20
2022-10-19T18:11:47.081Z,75.50
2022-10-19T18:15:35.751Z,75.90
2022-10-19T18:17:27.938Z,75.80
2022-10-19T18:19:18.795Z,76.10
2022-10-19T18:21:12.469Z,76.00
2022-10-19T18:23:03.269Z,76.10
2022-10-19T18:24:53.721Z,76.30
2022-10-19T18:26:44.125Z,76.40
2022-10-19T18:28:35.032Z,76.10
2022-10-19T18:30:25.879Z,76.40
2022-10-19T18:32:16.470Z,76.30
2022-10-19T18:34:08.587Z,76.60
2022-10-19T18:35:59.787Z,76.50
2022-10-19T18:37:51.464Z,76.50
2022-10-19T18:39:42.289Z,76.70
2022-10-19T18:41:33.502Z,76.70
2022-10-19T18:43:24.347Z,76.70
2022-10-19T18:45:14.876Z,77.20
2022-10-19T18:47:05.432Z,77.10
2022-10-19T18:48:56.274Z,77.10
2022-10-19T18:50:46.572Z,77.30
2022-10-19T18:52:37.244Z,77.30
2022-10-19T18:54:29.968Z,77.50
2022-10-19T18:56:22.096Z,77.40
2022-10-19T18:58:12.646Z,77.50
2022-10-19T19:00:04.637Z,77.60
2022-10-19T19:01:55.213Z,77.70
2022-10-19T19:03:47.647Z,77.60
2022-10-19T19:05:38.117Z,77.90
2022-10-19T19:07:29.871Z,77.80
2022-10-19T19:09:20.536Z,78.00
2022-10-19T19:11:16.409Z,77.90
2022-10-19T19:13:06.767Z,78.00
2022-10-19T19:14:57.665Z,78.00
2022-10-19T19:16:48.180Z,78.40
2022-10-19T19:18:38.870Z,78.50
2022-10-19T19:20:29.296Z,78.60
2022-10-19T19:22:20.043Z,78.50
2022-10-19T19:24:15.386Z,78.40
2022-10-19T19:26:06.062Z,78.60
2022-10-19T19:27:58.087Z,78.60
2022-10-19T19:29:48.886Z,78.80
2022-10-19T19:31:42.112Z,78.70
2022-10-19T19:33:38.989Z,78.70
2022-10-19T19:35:30.102Z,78.60
2022-10-19T19:37:23.133Z,79.00
2022-10-19T19:39:14.673Z,78.80
2022-10-19T19:41:06.234Z,78.90
2022-10-19T19:42:58.050Z,79.00
2022-10-19T19:44:48.867Z,79.30
2022-10-19T19:46:39.182Z,79.00
2022-10-19T19:48:29.607Z,79.20
2022-10-19T19:50:20.432Z,79.40
2022-10-19T19:52:10.854Z,79.50
2022-10-19T19:54:01.268Z,79.60
2022-10-19T19:55:51.518Z,79.40
2022-10-19T19:57:42.174Z,79.70
2022-10-19T19:59:34.026Z,79.70
2022-10-19T20:01:25.206Z,79.80
2022-10-19T20:03:16.799Z,79.90
2022-10-19T20:05:08.227Z,79.90
2022-10-19T20:06:58.881Z,80.30
2022-10-19T20:08:49.557Z,80.20
2022-10-19T20:10:40.504Z,80.20
2022-10-19T20:12:31.065Z,80.20
2022-10-19T20:14:21.508Z,80.00
2022-10-19T20:16:16.214Z,80.30
2022-10-19T20:18:07.033Z,80.10
2022-10-19T20:19:58.022Z,80.00
2022-10-19T20:21:49.844Z,79.80
2022-10-19T20:23:40.799Z,80.00
2022-10-19T20:25:31.164Z,80.30
2022-10-19T20:27:22.739Z,80.70
2022-10-19T20:29:12.901Z,80.90
2022-10-19T20:31:04.904Z,80.70
2022-10-19T20:32:56.947Z,80.80
2022-10-19T20:34:47.450Z,80.70
2022-10-19T20:36:38.290Z,80.60
2022-10-19T20:38:29.008Z,80.80
2022-10-19T20:40:19.910Z,80.60
2022-10-19T20:42:12.919Z,80.70
2022-10-19T20:44:03.659Z,80.70
2022-10-19T20:45:54.331Z,80.80
2022-10-19T20:47:44.891Z,80.50
2022-10-19T20:49:36.857Z,80.70
2022-10-19T20:51:32.058Z,80.50
2022-10-19T20:53:25.322Z,80.40
2022-10-19T20:55:17.389Z,80.20
2022-10-19T20:57:09.876Z,80.40
2022-10-19T21:00:53.651Z,80.30
2022-10-19T21:02:44.432Z,80.50
2022-10-19T21:04:36.664Z,80.80
2022-10-19T21:06:30.168Z,80.50
2022-10-19T21:08:20.600Z,80.50
2022-10-19T21:10:11.358Z,80.50
2022-10-19T21:12:01.718Z,80.40
2022-10-19T21:13:53.506Z,80.60
2022-10-19T21:15:44.090Z,81.10
2022-10-19T21:17:36.024Z,81.00
2022-10-19T21:19:28.497Z,80.90
2022-10-19T21:21:22.370Z,81.30
2022-10-19T21:23:12.825Z,81.50
2022-10-19T21:25:08.679Z,81.40
2022-10-19T21:27:00.980Z,81.40
2022-10-19T21:28:51.806Z,81.50
2022-10-19T21:30:42.255Z,81.50
2022-10-19T21:32:33.230Z,81.60
2022-10-19T21:34:25.489Z,81.50
2022-10-19T21:36:16.232Z,81.50
2022-10-19T21:38:07.833Z,81.50
2022-10-19T21:39:58.581Z,81.70
2022-10-19T21:41:49.631Z,81.50
2022-10-19T21:43:39.799Z,81.40
2022-10-19T21:45:30.950Z,81.70
2022-10-19T21:47:21.383Z,81.50
2022-10-19T21:49:12.100Z,81.40
2022-10-19T21:51:23.156Z,81.40
2022-10-19T21:53:17.701Z,81.40
2022-10-19T21:55:09.188Z,81.40
2022-10-19T21:56:59.501Z,81.60
2022-10-19T21:58:51.650Z,81.60
2022-10-19T22:00:42.106Z,81.60
2022-10-19T22:02:32.878Z,81.60
2022-10-19T22:04:23.826Z,81.70
2022-10-19T22:06:14.937Z,81.50
2022-10-19T22:08:06.193Z,81.50
2022-10-19T22:09:58.049Z,81.60
2022-10-19T22:11:48.723Z,81.80
2022-10-19T22:13:39.499Z,81.50
2022-10-19T22:15:29.822Z,81.40
2022-10-19T22:17:20.645Z,81.40
2022-10-19T22:19:11.845Z,81.40
2022-10-19T22:21:04.293Z,81.50
2022-10-19T22:22:55.109Z,81.80
2022-10-19T22:24:45.667Z,81.60
2022-10-19T22:26:39.520Z,81.70
2022-10-19T22:28:30.098Z,81.90
2022-10-19T22:30:20.599Z,82.00
2022-10-19T22:32:11.433Z,82.00
2022-10-19T22:34:03.879Z,82.30
2022-10-19T22:35:55.984Z,82.30
2022-10-19T22:37:47.423Z,82.50
2022-10-19T22:39:37.700Z,82.40
2022-10-19T22:42:04.824Z,82.50
2022-10-19T22:43:56.893Z,82.40
2022-10-19T22:45:47.868Z,82.60
2022-10-19T22:47:38.875Z,82.70
2022-10-19T22:49:29.246Z,82.90
2022-10-19T22:51:19.729Z,83.10
2022-10-19T22:53:09.948Z,83.10
2022-10-19T22:55:00.599Z,82.90
2022-10-19T22:56:50.997Z,83.10
2022-10-19T22:58:41.554Z,82.90
2022-10-19T23:00:33.370Z,83.20
2022-10-19T23:02:23.929Z,83.10
2022-10-19T23:04:14.461Z,83.10
2022-10-19T23:06:05.492Z,83.30
2022-10-19T23:07:56.228Z,83.50
2022-10-19T23:09:47.006Z,83.40
2022-10-19T23:11:37.606Z,83.50
2022-10-19T23:13:28.173Z,83.50
2022-10-19T23:15:19.037Z,83.50
2022-10-19T23:17:11.109Z,83.50
2022-10-19T23:19:01.599Z,83.50
2022-10-19T23:20:55.430Z,83.80
2022-10-19T23:22:46.022Z,83.80
2022-10-19T23:24:36.391Z,83.90
2022-10-19T23:26:27.042Z,84.00
2022-10-19T23:28:17.321Z,83.80
2022-10-19T23:30:08.587Z,83.90
2022-10-19T23:31:59.537Z,83.70
2022-10-19T23:33:51.721Z,83.50
2022-10-19T23:35:42.364Z,83.50
2022-10-19T23:37:34.248Z,83.70
2022-10-19T23:39:25.351Z,83.70
2022-10-19T23:41:16.181Z,83.80
2022-10-19T23:43:06.731Z,84.00
2022-10-19T23:44:57.185Z,83.90
2022-10-19T23:46:47.466Z,84.10
2022-10-19T23:48:37.953Z,84.20
2022-10-19T23:50:29.937Z,84.20
2022-10-19T23:52:20.139Z,84.40
2022-10-19T23:54:10.498Z,84.60
2022-10-19T23:56:01.157Z,84.80
2022-10-19T23:57:51.668Z,84.70
2022-10-19T23:59:42.167Z,84.70
